sensor_id;sensor_type;location;lat;lon;timestamp;P1;durP1;ratioP1;P2;durP2;ratioP2
20655;SDS011;10487;53.320;8.672;2023-03-01T00:01:50;0.30;;;0.30;;
20655;SDS011;10487;53.320;8.672;2023-03-01T00:04:52;0.20;;;0.20;;
20655;SDS011;10487;53.320;8.672;2023-03-01T00:07:53;0.17;;;0.17;;
20655;SDS011;10487;53.320;8.672;2023-03-01T00:14:08;0.35;;;0.30;;
20655;SDS011;10487;53.320;8.672;2023-03-01T00:17:10;0.20;;;0.20;;
20655;SDS011;10487;53.320;8.672;2023-03-01T00:20:12;0.20;;;0.20;;
20655;SDS011;10487;53.320;8.672;2023-03-01T00:23:14;0.40;;;0.40;;
20655;SDS011;10487;53.320;8.672;2023-03-01T00:26:16;0.30;;;0.30;;
20655;SDS011;10487;53.320;8.672;2023-03-01T00:29:19;0.20;;;0.20;;
20655;SDS011;10487;53.320;8.672;2023-03-01T00:32:20;0.30;;;0.30;;
20655;SDS011;10487;53.320;8.672;2023-03-01T00:35:22;0.20;;;0.20;;
20655;SDS011;10487;53.320;8.672;2023-03-01T00:38:24;0.30;;;0.30;;
20655;SDS011;10487;53.320;8.672;2023-03-01T00:41:26;0.22;;;0.22;;
20655;SDS011;10487;53.320;8.672;2023-03-01T00:44:28;0.20;;;0.20;;
20655;SDS011;10487;53.320;8.672;2023-03-01T00:47:29;0.40;;;0.30;;
20655;SDS011;10487;53.320;8.672;2023-03-01T00:50:31;0.20;;;0.20;;
20655;SDS011;10487;53.320;8.672;2023-03-01T00:53:33;0.22;;;0.22;;
20655;SDS011;10487;53.320;8.672;2023-03-01T00:56:35;0.20;;;0.20;;
20655;SDS011;10487;53.320;8.672;2023-03-01T00:59:37;0.30;;;0.30;;
20655;SDS011;10487;53.320;8.672;2023-03-01T01:02:38;0.30;;;0.30;;
20655;SDS011;10487;53.320;8.672;2023-03-01T01:05:40;0.20;;;0.20;;
20655;SDS011;10487;53.320;8.672;2023-03-01T01:08:41;0.30;;;0.30;;
20655;SDS011;10487;53.320;8.672;2023-03-01T01:11:46;0.20;;;0.20;;
20655;SDS011;10487;53.320;8.672;2023-03-01T01:14:50;0.20;;;0.20;;
20655;SDS011;10487;53.320;8.672;2023-03-01T01:17:51;0.20;;;0.20;;
20655;SDS011;10487;53.320;8.672;2023-03-01T01:20:53;0.20;;;0.20;;
20655;SDS011;10487;53.320;8.672;2023-03-01T01:23:54;0.20;;;0.20;;
20655;SDS011;10487;53.320;8.672;2023-03-01T01:26:56;0.20;;;0.20;;
20655;SDS011;10487;53.320;8.672;2023-03-01T01:29:58;0.20;;;0.20;;
20655;SDS011;10487;53.320;8.672;2023-03-01T01:32:59;0.20;;;0.20;;
20655;SDS011;10487;53.320;8.672;2023-03-01T01:36:01;0.20;;;0.20;;
20655;SDS011;10487;53.320;8.672;2023-03-01T01:39:03;0.20;;;0.20;;
20655;SDS011;10487;53.320;8.672;2023-03-01T01:42:05;0.20;;;0.20;;
20655;SDS011;10487;53.320;8.672;2023-03-01T01:48:39;0.22;;;0.22;;
20655;SDS011;10487;53.320;8.672;2023-03-01T01:51:48;0.28;;;0.28;;
20655;SDS011;10487;53.320;8.672;2023-03-01T01:54:56;0.20;;;0.20;;
20655;SDS011;10487;53.320;8.672;2023-03-01T01:58:02;0.20;;;0.20;;
20655;SDS011;10487;53.320;8.672;2023-03-01T02:01:07;0.20;;;0.20;;
20655;SDS011;10487;53.320;8.672;2023-03-01T02:04:08;0.30;;;0.30;;
20655;SDS011;10487;53.320;8.672;2023-03-01T02:07:15;0.20;;;0.20;;
20655;SDS011;10487;53.320;8.672;2023-03-01T02:10:19;0.20;;;0.20;;
20655;SDS011;10487;53.320;8.672;2023-03-01T02:13:23;0.20;;;0.20;;
20655;SDS011;10487;53.320;8.672;2023-03-01T02:16:24;0.20;;;0.20;;
20655;SDS011;10487;53.320;8.672;2023-03-01T02:19:31;0.20;;;0.20;;
20655;SDS011;10487;53.320;8.672;2023-03-01T02:22:45;0.30;;;0.28;;
20655;SDS011;10487;53.320;8.672;2023-03-01T02:29:01;0.30;;;0.30;;
20655;SDS011;10487;53.320;8.672;2023-03-01T02:32:03;0.20;;;0.20;;
20655;SDS011;10487;53.320;8.672;2023-03-01T02:35:06;0.20;;;0.20;;
20655;SDS011;10487;53.320;8.672;2023-03-01T02:38:09;0.20;;;0.20;;
20655;SDS011;10487;53.320;8.672;2023-03-01T02:41:11;0.40;;;0.30;;
20655;SDS011;10487;53.320;8.672;2023-03-01T02:44:16;0.20;;;0.20;;
20655;SDS011;10487;53.320;8.672;2023-03-01T02:47:17;0.20;;;0.20;;
20655;SDS011;10487;53.320;8.672;2023-03-01T02:50:52;0.20;;;0.20;;
20655;SDS011;10487;53.320;8.672;2023-03-01T02:57:46;0.20;;;0.20;;
20655;SDS011;10487;53.320;8.672;2023-03-01T03:00:52;0.20;;;0.20;;
20655;SDS011;10487;53.320;8.672;2023-03-01T03:03:54;0.20;;;0.20;;
20655;SDS011;10487;53.320;8.672;2023-03-01T03:06:55;0.20;;;0.20;;
20655;SDS011;10487;53.320;8.672;2023-03-01T03:09:57;0.20;;;0.20;;
20655;SDS011;10487;53.320;8.672;2023-03-01T03:13:03;0.20;;;0.20;;
20655;SDS011;10487;53.320;8.672;2023-03-01T03:16:06;0.30;;;0.30;;
20655;SDS011;10487;53.320;8.672;2023-03-01T03:19:08;1.17;;;0.20;;
20655;SDS011;10487;53.320;8.672;2023-03-01T03:22:09;0.20;;;0.20;;
20655;SDS011;10487;53.320;8.672;2023-03-01T03:25:11;0.10;;;0.10;;
20655;SDS011;10487;53.320;8.672;2023-03-01T03:28:13;0.30;;;0.30;;
20655;SDS011;10487;53.320;8.672;2023-03-01T03:31:17;0.20;;;0.20;;
20655;SDS011;10487;53.320;8.672;2023-03-01T03:34:18;0.28;;;0.25;;
20655;SDS011;10487;53.320;8.672;2023-03-01T03:37:20;0.20;;;0.20;;
20655;SDS011;10487;53.320;8.672;2023-03-01T03:40:45;0.10;;;0.10;;
20655;SDS011;10487;53.320;8.672;2023-03-01T03:43:47;0.20;;;0.20;;
20655;SDS011;10487;53.320;8.672;2023-03-01T03:46:50;0.52;;;0.30;;
20655;SDS011;10487;53.320;8.672;2023-03-01T03:49:51;0.20;;;0.20;;
20655;SDS011;10487;53.320;8.672;2023-03-01T03:52:53;0.20;;;0.20;;
20655;SDS011;10487;53.320;8.672;2023-03-01T03:55:55;0.20;;;0.20;;
20655;SDS011;10487;53.320;8.672;2023-03-01T03:58:56;0.20;;;0.20;;
20655;SDS011;10487;53.320;8.672;2023-03-01T04:01:58;0.20;;;0.20;;
20655;SDS011;10487;53.320;8.672;2023-03-01T04:05:00;0.20;;;0.20;;
20655;SDS011;10487;53.320;8.672;2023-03-01T04:08:02;0.20;;;0.20;;
20655;SDS011;10487;53.320;8.672;2023-03-01T04:11:04;0.20;;;0.20;;
20655;SDS011;10487;53.320;8.672;2023-03-01T04:14:24;0.22;;;0.22;;
20655;SDS011;10487;53.320;8.672;2023-03-01T04:17:26;0.20;;;0.20;;
20655;SDS011;10487;53.320;8.672;2023-03-01T04:20:29;0.30;;;0.30;;
20655;SDS011;10487;53.320;8.672;2023-03-01T04:23:32;0.55;;;0.30;;
20655;SDS011;10487;53.320;8.672;2023-03-01T04:26:33;0.20;;;0.20;;
20655;SDS011;10487;53.320;8.672;2023-03-01T04:29:35;0.20;;;0.20;;
20655;SDS011;10487;53.320;8.672;2023-03-01T04:32:36;0.20;;;0.20;;
20655;SDS011;10487;53.320;8.672;2023-03-01T04:35:38;0.20;;;0.20;;
20655;SDS011;10487;53.320;8.672;2023-03-01T04:38:40;0.20;;;0.20;;
20655;SDS011;10487;53.320;8.672;2023-03-01T04:41:42;0.20;;;0.20;;
20655;SDS011;10487;53.320;8.672;2023-03-01T04:44:46;0.30;;;0.20;;
20655;SDS011;10487;53.320;8.672;2023-03-01T04:47:48;0.20;;;0.20;;
20655;SDS011;10487;53.320;8.672;2023-03-01T04:50:50;0.20;;;0.20;;
20655;SDS011;10487;53.320;8.672;2023-03-01T04:53:51;0.20;;;0.20;;
20655;SDS011;10487;53.320;8.672;2023-03-01T04:56:53;0.20;;;0.20;;
20655;SDS011;10487;53.320;8.672;2023-03-01T04:59:55;0.25;;;0.25;;
20655;SDS011;10487;53.320;8.672;2023-03-01T05:02:59;0.20;;;0.20;;
20655;SDS011;10487;53.320;8.672;2023-03-01T05:06:01;0.20;;;0.20;;
20655;SDS011;10487;53.320;8.672;2023-03-01T05:09:03;0.20;;;0.20;;
20655;SDS011;10487;53.320;8.672;2023-03-01T05:12:04;0.20;;;0.20;;
20655;SDS011;10487;53.320;8.672;2023-03-01T05:15:06;0.22;;;0.22;;
20655;SDS011;10487;53.320;8.672;2023-03-01T05:18:08;0.20;;;0.20;;
20655;SDS011;10487;53.320;8.672;2023-03-01T05:21:13;0.20;;;0.20;;
20655;SDS011;10487;53.320;8.672;2023-03-01T05:24:17;0.20;;;0.20;;
20655;SDS011;10487;53.320;8.672;2023-03-01T05:27:19;0.28;;;0.28;;
20655;SDS011;10487;53.320;8.672;2023-03-01T05:30:23;0.20;;;0.20;;
20655;SDS011;10487;53.320;8.672;2023-03-01T05:33:25;0.20;;;0.20;;
20655;SDS011;10487;53.320;8.672;2023-03-01T05:36:27;0.20;;;0.20;;
20655;SDS011;10487;53.320;8.672;2023-03-01T05:39:30;0.20;;;0.20;;
20655;SDS011;10487;53.320;8.672;2023-03-01T05:42:32;0.17;;;0.17;;
20655;SDS011;10487;53.320;8.672;2023-03-01T05:45:35;0.32;;;0.25;;
20655;SDS011;10487;53.320;8.672;2023-03-01T05:48:38;0.30;;;0.30;;
20655;SDS011;10487;53.320;8.672;2023-03-01T05:51:40;0.50;;;0.20;;
20655;SDS011;10487;53.320;8.672;2023-03-01T05:54:42;0.28;;;0.28;;
20655;SDS011;10487;53.320;8.672;2023-03-01T05:57:44;0.22;;;0.22;;
20655;SDS011;10487;53.320;8.672;2023-03-01T06:00:46;0.20;;;0.20;;
20655;SDS011;10487;53.320;8.672;2023-03-01T06:03:49;0.13;;;0.13;;
20655;SDS011;10487;53.320;8.672;2023-03-01T06:06:50;0.45;;;0.20;;
20655;SDS011;10487;53.320;8.672;2023-03-01T06:09:52;0.20;;;0.20;;
20655;SDS011;10487;53.320;8.672;2023-03-01T06:12:54;0.20;;;0.20;;
20655;SDS011;10487;53.320;8.672;2023-03-01T06:15:56;0.30;;;0.30;;
20655;SDS011;10487;53.320;8.672;2023-03-01T06:18:57;0.20;;;0.20;;
20655;SDS011;10487;53.320;8.672;2023-03-01T06:21:59;0.20;;;0.20;;
20655;SDS011;10487;53.320;8.672;2023-03-01T06:25:00;0.20;;;0.20;;
20655;SDS011;10487;53.320;8.672;2023-03-01T06:28:02;0.30;;;0.30;;
20655;SDS011;10487;53.320;8.672;2023-03-01T06:31:05;0.20;;;0.20;;
20655;SDS011;10487;53.320;8.672;2023-03-01T06:34:10;0.28;;;0.28;;
20655;SDS011;10487;53.320;8.672;2023-03-01T06:37:14;0.20;;;0.20;;
20655;SDS011;10487;53.320;8.672;2023-03-01T06:40:16;0.22;;;0.22;;
20655;SDS011;10487;53.320;8.672;2023-03-01T06:43:17;0.20;;;0.20;;
20655;SDS011;10487;53.320;8.672;2023-03-01T06:46:19;0.20;;;0.20;;
20655;SDS011;10487;53.320;8.672;2023-03-01T06:49:21;0.30;;;0.30;;
20655;SDS011;10487;53.320;8.672;2023-03-01T06:52:22;0.28;;;0.28;;
20655;SDS011;10487;53.320;8.672;2023-03-01T06:55:24;0.20;;;0.20;;
20655;SDS011;10487;53.320;8.672;2023-03-01T06:58:26;0.20;;;0.20;;
20655;SDS011;10487;53.320;8.672;2023-03-01T07:01:29;0.20;;;0.20;;
20655;SDS011;10487;53.320;8.672;2023-03-01T07:04:31;0.20;;;0.20;;
20655;SDS011;10487;53.320;8.672;2023-03-01T07:07:33;0.20;;;0.20;;
20655;SDS011;10487;53.320;8.672;2023-03-01T07:10:34;0.17;;;0.17;;
20655;SDS011;10487;53.320;8.672;2023-03-01T07:13:36;0.20;;;0.20;;
20655;SDS011;10487;53.320;8.672;2023-03-01T07:16:38;0.30;;;0.30;;
20655;SDS011;10487;53.320;8.672;2023-03-01T07:19:39;0.20;;;0.20;;
20655;SDS011;10487;53.320;8.672;2023-03-01T07:22:41;0.50;;;0.50;;
20655;SDS011;10487;53.320;8.672;2023-03-01T07:25:52;0.30;;;0.30;;
20655;SDS011;10487;53.320;8.672;2023-03-01T07:28:55;0.20;;;0.20;;
20655;SDS011;10487;53.320;8.672;2023-03-01T07:31:56;0.22;;;0.20;;
20655;SDS011;10487;53.320;8.672;2023-03-01T07:34:58;0.30;;;0.30;;
20655;SDS011;10487;53.320;8.672;2023-03-01T07:38:00;0.30;;;0.28;;
20655;SDS011;10487;53.320;8.672;2023-03-01T07:41:02;0.30;;;0.30;;
20655;SDS011;10487;53.320;8.672;2023-03-01T07:44:04;0.20;;;0.20;;
20655;SDS011;10487;53.320;8.672;2023-03-01T07:47:07;0.30;;;0.30;;
20655;SDS011;10487;53.320;8.672;2023-03-01T07:50:08;0.25;;;0.20;;
20655;SDS011;10487;53.320;8.672;2023-03-01T07:53:11;0.20;;;0.20;;
20655;SDS011;10487;53.320;8.672;2023-03-01T07:56:13;0.20;;;0.20;;
20655;SDS011;10487;53.320;8.672;2023-03-01T07:59:18;0.30;;;0.30;;
20655;SDS011;10487;53.320;8.672;2023-03-01T08:02:20;0.20;;;0.20;;
20655;SDS011;10487;53.320;8.672;2023-03-01T08:05:21;0.20;;;0.20;;
20655;SDS011;10487;53.320;8.672;2023-03-01T08:08:23;0.20;;;0.20;;
20655;SDS011;10487;53.320;8.672;2023-03-01T08:11:24;0.30;;;0.30;;
20655;SDS011;10487;53.320;8.672;2023-03-01T08:14:26;0.20;;;0.20;;
20655;SDS011;10487;53.320;8.672;2023-03-01T08:17:28;0.20;;;0.20;;
20655;SDS011;10487;53.320;8.672;2023-03-01T08:20:29;0.35;;;0.20;;
20655;SDS011;10487;53.320;8.672;2023-03-01T08:23:31;0.20;;;0.20;;
20655;SDS011;10487;53.320;8.672;2023-03-01T08:26:33;0.20;;;0.20;;
20655;SDS011;10487;53.320;8.672;2023-03-01T08:29:34;0.20;;;0.20;;
20655;SDS011;10487;53.320;8.672;2023-03-01T08:32:37;0.20;;;0.20;;
20655;SDS011;10487;53.320;8.672;2023-03-01T08:35:40;0.22;;;0.22;;
20655;SDS011;10487;53.320;8.672;2023-03-01T08:38:41;0.20;;;0.20;;
20655;SDS011;10487;53.320;8.672;2023-03-01T08:41:43;0.40;;;0.40;;
20655;SDS011;10487;53.320;8.672;2023-03-01T08:44:48;0.20;;;0.20;;
20655;SDS011;10487;53.320;8.672;2023-03-01T08:47:51;0.20;;;0.20;;
20655;SDS011;10487;53.320;8.672;2023-03-01T08:50:54;0.30;;;0.30;;
20655;SDS011;10487;53.320;8.672;2023-03-01T08:53:56;0.30;;;0.30;;
20655;SDS011;10487;53.320;8.672;2023-03-01T08:56:58;0.30;;;0.30;;
20655;SDS011;10487;53.320;8.672;2023-03-01T09:00:03;0.20;;;0.20;;
20655;SDS011;10487;53.320;8.672;2023-03-01T09:03:04;0.25;;;0.25;;
20655;SDS011;10487;53.320;8.672;2023-03-01T09:06:06;0.25;;;0.25;;
20655;SDS011;10487;53.320;8.672;2023-03-01T09:09:15;0.22;;;0.22;;
20655;SDS011;10487;53.320;8.672;2023-03-01T09:12:18;0.20;;;0.20;;
20655;SDS011;10487;53.320;8.672;2023-03-01T09:15:20;0.20;;;0.20;;
20655;SDS011;10487;53.320;8.672;2023-03-01T09:18:21;0.30;;;0.30;;
20655;SDS011;10487;53.320;8.672;2023-03-01T09:21:23;0.30;;;0.30;;
20655;SDS011;10487;53.320;8.672;2023-03-01T09:24:40;0.30;;;0.30;;
20655;SDS011;10487;53.320;8.672;2023-03-01T09:27:43;0.20;;;0.20;;
20655;SDS011;10487;53.320;8.672;2023-03-01T09:30:44;0.35;;;0.30;;
20655;SDS011;10487;53.320;8.672;2023-03-01T09:33:47;0.30;;;0.30;;
20655;SDS011;10487;53.320;8.672;2023-03-01T09:36:49;0.20;;;0.20;;
20655;SDS011;10487;53.320;8.672;2023-03-01T09:39:52;0.30;;;0.30;;
20655;SDS011;10487;53.320;8.672;2023-03-01T09:43:07;0.35;;;0.35;;
20655;SDS011;10487;53.320;8.672;2023-03-01T09:46:17;0.30;;;0.30;;
20655;SDS011;10487;53.320;8.672;2023-03-01T09:49:27;0.30;;;0.30;;
20655;SDS011;10487;53.320;8.672;2023-03-01T10:05:27;0.50;;;0.40;;
20655;SDS011;10487;53.320;8.672;2023-03-01T10:12:10;0.82;;;0.50;;
20655;SDS011;10487;53.320;8.672;2023-03-01T10:15:17;0.50;;;0.40;;
20655;SDS011;10487;53.320;8.672;2023-03-01T10:18:25;0.40;;;0.30;;
20655;SDS011;10487;53.320;8.672;2023-03-01T10:21:29;0.70;;;0.40;;
20655;SDS011;10487;53.320;8.672;2023-03-01T10:24:34;0.63;;;0.50;;
20655;SDS011;10487;53.320;8.672;2023-03-01T10:27:40;0.30;;;0.30;;
20655;SDS011;10487;53.320;8.672;2023-03-01T10:30:43;0.43;;;0.38;;
20655;SDS011;10487;53.320;8.672;2023-03-01T10:33:46;0.43;;;0.40;;
20655;SDS011;10487;53.320;8.672;2023-03-01T10:36:52;0.38;;;0.35;;
20655;SDS011;10487;53.320;8.672;2023-03-01T10:40:05;0.35;;;0.35;;
20655;SDS011;10487;53.320;8.672;2023-03-01T10:43:12;0.38;;;0.38;;
20655;SDS011;10487;53.320;8.672;2023-03-01T10:46:23;0.43;;;0.30;;
20655;SDS011;10487;53.320;8.672;2023-03-01T10:49:31;0.30;;;0.30;;
20655;SDS011;10487;53.320;8.672;2023-03-01T10:52:36;0.38;;;0.30;;
20655;SDS011;10487;53.320;8.672;2023-03-01T10:55:41;0.38;;;0.38;;
20655;SDS011;10487;53.320;8.672;2023-03-01T10:58:59;0.30;;;0.30;;
20655;SDS011;10487;53.320;8.672;2023-03-01T11:02:13;0.20;;;0.20;;
20655;SDS011;10487;53.320;8.672;2023-03-01T11:05:26;0.52;;;0.30;;
20655;SDS011;10487;53.320;8.672;2023-03-01T11:08:50;0.30;;;0.30;;
20655;SDS011;10487;53.320;8.672;2023-03-01T11:11:54;0.25;;;0.25;;
20655;SDS011;10487;53.320;8.672;2023-03-01T11:14:57;0.40;;;0.40;;
20655;SDS011;10487;53.320;8.672;2023-03-01T11:17:59;0.30;;;0.30;;
20655;SDS011;10487;53.320;8.672;2023-03-01T11:21:15;0.43;;;0.43;;
20655;SDS011;10487;53.320;8.672;2023-03-01T11:24:17;0.40;;;0.30;;
20655;SDS011;10487;53.320;8.672;2023-03-01T11:27:35;0.65;;;0.60;;
20655;SDS011;10487;53.320;8.672;2023-03-01T11:30:48;0.50;;;0.50;;
20655;SDS011;10487;53.320;8.672;2023-03-01T11:34:13;0.35;;;0.35;;
20655;SDS011;10487;53.320;8.672;2023-03-01T11:37:22;0.40;;;0.40;;
20655;SDS011;10487;53.320;8.672;2023-03-01T11:40:39;0.45;;;0.45;;
20655;SDS011;10487;53.320;8.672;2023-03-01T11:43:52;0.40;;;0.40;;
20655;SDS011;10487;53.320;8.672;2023-03-01T11:57:44;0.60;;;0.60;;
20655;SDS011;10487;53.320;8.672;2023-03-01T12:07:44;0.50;;;0.40;;
20655;SDS011;10487;53.320;8.672;2023-03-01T12:14:42;0.63;;;0.50;;
20655;SDS011;10487;53.320;8.672;2023-03-01T12:18:12;0.45;;;0.40;;
20655;SDS011;10487;53.320;8.672;2023-03-01T12:46:15;0.88;;;0.82;;
20655;SDS011;10487;53.320;8.672;2023-03-01T12:49:41;1.00;;;0.77;;
20655;SDS011;10487;53.320;8.672;2023-03-01T12:52:50;1.35;;;1.25;;
20655;SDS011;10487;53.320;8.672;2023-03-01T12:56:06;0.98;;;0.70;;
20655;SDS011;10487;53.320;8.672;2023-03-01T13:12:52;0.90;;;0.70;;
20655;SDS011;10487;53.320;8.672;2023-03-01T13:15:54;0.60;;;0.60;;
20655;SDS011;10487;53.320;8.672;2023-03-01T13:19:07;0.50;;;0.30;;
20655;SDS011;10487;53.320;8.672;2023-03-01T13:22:25;0.50;;;0.45;;
20655;SDS011;10487;53.320;8.672;2023-03-01T13:25:29;0.40;;;0.40;;
20655;SDS011;10487;53.320;8.672;2023-03-01T13:28:46;0.70;;;0.60;;
20655;SDS011;10487;53.320;8.672;2023-03-01T13:31:58;0.80;;;0.52;;
20655;SDS011;10487;53.320;8.672;2023-03-01T13:35:01;0.60;;;0.40;;
20655;SDS011;10487;53.320;8.672;2023-03-01T13:41:59;1.13;;;0.90;;
20655;SDS011;10487;53.320;8.672;2023-03-01T13:45:01;0.50;;;0.50;;
20655;SDS011;10487;53.320;8.672;2023-03-01T13:48:20;0.95;;;0.85;;
20655;SDS011;10487;53.320;8.672;2023-03-01T13:51:26;0.80;;;0.70;;
20655;SDS011;10487;53.320;8.672;2023-03-01T13:54:29;0.52;;;0.52;;
20655;SDS011;10487;53.320;8.672;2023-03-01T13:57:33;0.60;;;0.60;;
20655;SDS011;10487;53.320;8.672;2023-03-01T14:00:38;0.50;;;0.50;;
20655;SDS011;10487;53.320;8.672;2023-03-01T14:03:41;0.40;;;0.40;;
20655;SDS011;10487;53.320;8.672;2023-03-01T14:06:43;0.30;;;0.30;;
20655;SDS011;10487;53.320;8.672;2023-03-01T14:09:45;0.50;;;0.50;;
20655;SDS011;10487;53.320;8.672;2023-03-01T14:12:52;0.70;;;0.60;;
20655;SDS011;10487;53.320;8.672;2023-03-01T14:20:14;0.93;;;0.60;;
20655;SDS011;10487;53.320;8.672;2023-03-01T14:23:18;0.60;;;0.60;;
20655;SDS011;10487;53.320;8.672;2023-03-01T14:26:22;0.60;;;0.50;;
20655;SDS011;10487;53.320;8.672;2023-03-01T14:32:27;0.57;;;0.50;;
20655;SDS011;10487;53.320;8.672;2023-03-01T14:35:31;0.40;;;0.40;;
20655;SDS011;10487;53.320;8.672;2023-03-01T14:38:36;0.77;;;0.77;;
20655;SDS011;10487;53.320;8.672;2023-03-01T14:41:42;0.70;;;0.70;;
20655;SDS011;10487;53.320;8.672;2023-03-01T14:44:48;1.08;;;0.80;;
20655;SDS011;10487;53.320;8.672;2023-03-01T14:47:51;0.60;;;0.52;;
20655;SDS011;10487;53.320;8.672;2023-03-01T14:50:54;0.80;;;0.60;;
20655;SDS011;10487;53.320;8.672;2023-03-01T14:53:56;0.40;;;0.40;;
20655;SDS011;10487;53.320;8.672;2023-03-01T14:56:59;0.43;;;0.40;;
20655;SDS011;10487;53.320;8.672;2023-03-01T15:00:03;0.55;;;0.50;;
20655;SDS011;10487;53.320;8.672;2023-03-01T15:03:08;0.47;;;0.47;;
20655;SDS011;10487;53.320;8.672;2023-03-01T15:06:15;0.75;;;0.60;;
20655;SDS011;10487;53.320;8.672;2023-03-01T15:09:19;0.90;;;0.70;;
20655;SDS011;10487;53.320;8.672;2023-03-01T15:18:31;1.00;;;0.90;;
20655;SDS011;10487;53.320;8.672;2023-03-01T15:21:35;1.40;;;1.10;;
20655;SDS011;10487;53.320;8.672;2023-03-01T15:24:38;1.00;;;0.90;;
20655;SDS011;10487;53.320;8.672;2023-03-01T15:27:40;0.63;;;0.60;;
20655;SDS011;10487;53.320;8.672;2023-03-01T15:30:51;0.65;;;0.50;;
20655;SDS011;10487;53.320;8.672;2023-03-01T15:34:09;0.63;;;0.60;;
20655;SDS011;10487;53.320;8.672;2023-03-01T15:37:40;0.40;;;0.40;;
20655;SDS011;10487;53.320;8.672;2023-03-01T15:40:48;0.60;;;0.60;;
20655;SDS011;10487;53.320;8.672;2023-03-01T15:43:51;0.40;;;0.40;;
20655;SDS011;10487;53.320;8.672;2023-03-01T15:46:56;0.68;;;0.52;;
20655;SDS011;10487;53.320;8.672;2023-03-01T15:49:59;0.70;;;0.70;;
20655;SDS011;10487;53.320;8.672;2023-03-01T15:53:04;0.45;;;0.45;;
20655;SDS011;10487;53.320;8.672;2023-03-01T15:56:09;0.40;;;0.40;;
20655;SDS011;10487;53.320;8.672;2023-03-01T15:59:10;0.40;;;0.40;;
20655;SDS011;10487;53.320;8.672;2023-03-01T16:02:15;0.90;;;0.50;;
20655;SDS011;10487;53.320;8.672;2023-03-01T16:08:26;0.40;;;0.40;;
20655;SDS011;10487;53.320;8.672;2023-03-01T16:11:27;0.50;;;0.40;;
20655;SDS011;10487;53.320;8.672;2023-03-01T16:14:29;0.35;;;0.32;;
20655;SDS011;10487;53.320;8.672;2023-03-01T16:17:30;0.22;;;0.22;;
20655;SDS011;10487;53.320;8.672;2023-03-01T16:20:32;0.43;;;0.40;;
20655;SDS011;10487;53.320;8.672;2023-03-01T16:23:34;0.28;;;0.28;;
20655;SDS011;10487;53.320;8.672;2023-03-01T16:26:36;0.40;;;0.40;;
20655;SDS011;10487;53.320;8.672;2023-03-01T16:29:38;0.32;;;0.32;;
20655;SDS011;10487;53.320;8.672;2023-03-01T16:32:41;0.50;;;0.40;;
20655;SDS011;10487;53.320;8.672;2023-03-01T16:35:44;0.28;;;0.28;;
20655;SDS011;10487;53.320;8.672;2023-03-01T16:38:46;0.30;;;0.30;;
20655;SDS011;10487;53.320;8.672;2023-03-01T16:41:49;0.32;;;0.32;;
20655;SDS011;10487;53.320;8.672;2023-03-01T16:44:57;0.40;;;0.40;;
20655;SDS011;10487;53.320;8.672;2023-03-01T16:47:58;0.30;;;0.30;;
20655;SDS011;10487;53.320;8.672;2023-03-01T16:51:01;0.50;;;0.40;;
20655;SDS011;10487;53.320;8.672;2023-03-01T16:54:03;0.47;;;0.40;;
20655;SDS011;10487;53.320;8.672;2023-03-01T16:57:05;0.40;;;0.40;;
20655;SDS011;10487;53.320;8.672;2023-03-01T17:00:07;0.63;;;0.47;;
20655;SDS011;10487;53.320;8.672;2023-03-01T17:03:14;0.40;;;0.40;;
20655;SDS011;10487;53.320;8.672;2023-03-01T17:06:19;1.00;;;0.90;;
20655;SDS011;10487;53.320;8.672;2023-03-01T17:09:23;0.50;;;0.50;;
20655;SDS011;10487;53.320;8.672;2023-03-01T17:12:25;0.60;;;0.60;;
20655;SDS011;10487;53.320;8.672;2023-03-01T17:15:26;0.40;;;0.40;;
20655;SDS011;10487;53.320;8.672;2023-03-01T17:18:28;0.30;;;0.30;;
20655;SDS011;10487;53.320;8.672;2023-03-01T17:21:29;0.30;;;0.30;;
20655;SDS011;10487;53.320;8.672;2023-03-01T17:24:32;0.45;;;0.40;;
20655;SDS011;10487;53.320;8.672;2023-03-01T17:27:39;0.40;;;0.32;;
20655;SDS011;10487;53.320;8.672;2023-03-01T17:30:42;0.22;;;0.22;;
20655;SDS011;10487;53.320;8.672;2023-03-01T17:33:45;0.30;;;0.30;;
20655;SDS011;10487;53.320;8.672;2023-03-01T17:36:47;0.30;;;0.30;;
20655;SDS011;10487;53.320;8.672;2023-03-01T17:39:50;0.30;;;0.30;;
20655;SDS011;10487;53.320;8.672;2023-03-01T17:42:52;0.35;;;0.35;;
20655;SDS011;10487;53.320;8.672;2023-03-01T17:45:54;0.30;;;0.30;;
20655;SDS011;10487;53.320;8.672;2023-03-01T17:48:56;0.30;;;0.30;;
20655;SDS011;10487;53.320;8.672;2023-03-01T17:51:58;0.50;;;0.50;;
20655;SDS011;10487;53.320;8.672;2023-03-01T17:55:00;0.40;;;0.40;;
20655;SDS011;10487;53.320;8.672;2023-03-01T17:58:02;0.40;;;0.40;;
20655;SDS011;10487;53.320;8.672;2023-03-01T18:01:15;0.60;;;0.40;;
20655;SDS011;10487;53.320;8.672;2023-03-01T18:04:20;0.40;;;0.40;;
20655;SDS011;10487;53.320;8.672;2023-03-01T18:07:24;0.45;;;0.45;;
20655;SDS011;10487;53.320;8.672;2023-03-01T18:10:26;0.50;;;0.45;;
20655;SDS011;10487;53.320;8.672;2023-03-01T18:13:28;0.60;;;0.40;;
20655;SDS011;10487;53.320;8.672;2023-03-01T18:16:30;0.52;;;0.40;;
20655;SDS011;10487;53.320;8.672;2023-03-01T18:19:32;0.60;;;0.40;;
20655;SDS011;10487;53.320;8.672;2023-03-01T18:22:34;0.40;;;0.40;;
20655;SDS011;10487;53.320;8.672;2023-03-01T18:25:38;0.35;;;0.30;;
20655;SDS011;10487;53.320;8.672;2023-03-01T18:28:40;0.30;;;0.30;;
20655;SDS011;10487;53.320;8.672;2023-03-01T18:31:42;0.30;;;0.30;;
20655;SDS011;10487;53.320;8.672;2023-03-01T18:34:43;0.60;;;0.30;;
20655;SDS011;10487;53.320;8.672;2023-03-01T18:37:45;0.30;;;0.30;;
20655;SDS011;10487;53.320;8.672;2023-03-01T18:40:47;0.50;;;0.40;;
20655;SDS011;10487;53.320;8.672;2023-03-01T18:43:49;0.40;;;0.40;;
20655;SDS011;10487;53.320;8.672;2023-03-01T18:46:50;0.47;;;0.25;;
20655;SDS011;10487;53.320;8.672;2023-03-01T18:49:53;0.30;;;0.30;;
20655;SDS011;10487;53.320;8.672;2023-03-01T18:52:54;0.50;;;0.45;;
20655;SDS011;10487;53.320;8.672;2023-03-01T18:55:58;0.30;;;0.30;;
20655;SDS011;10487;53.320;8.672;2023-03-01T18:59:01;0.20;;;0.20;;
20655;SDS011;10487;53.320;8.672;2023-03-01T19:02:04;0.50;;;0.35;;
20655;SDS011;10487;53.320;8.672;2023-03-01T19:05:06;0.45;;;0.30;;
20655;SDS011;10487;53.320;8.672;2023-03-01T19:08:08;0.30;;;0.30;;
20655;SDS011;10487;53.320;8.672;2023-03-01T19:11:10;0.47;;;0.35;;
20655;SDS011;10487;53.320;8.672;2023-03-01T19:14:12;1.17;;;0.88;;
20655;SDS011;10487;53.320;8.672;2023-03-01T19:17:14;1.08;;;0.80;;
20655;SDS011;10487;53.320;8.672;2023-03-01T19:20:16;2.95;;;1.40;;
20655;SDS011;10487;53.320;8.672;2023-03-01T19:23:17;1.83;;;0.98;;
20655;SDS011;10487;53.320;8.672;2023-03-01T19:26:20;1.17;;;0.85;;
20655;SDS011;10487;53.320;8.672;2023-03-01T19:29:23;0.80;;;0.50;;
20655;SDS011;10487;53.320;8.672;2023-03-01T19:32:25;0.80;;;0.70;;
20655;SDS011;10487;53.320;8.672;2023-03-01T19:35:27;0.68;;;0.52;;
20655;SDS011;10487;53.320;8.672;2023-03-01T19:38:28;0.98;;;0.60;;
20655;SDS011;10487;53.320;8.672;2023-03-01T19:41:31;0.93;;;0.70;;
20655;SDS011;10487;53.320;8.672;2023-03-01T19:44:32;0.52;;;0.50;;
20655;SDS011;10487;53.320;8.672;2023-03-01T19:47:34;1.08;;;0.60;;
20655;SDS011;10487;53.320;8.672;2023-03-01T19:50:35;1.02;;;0.82;;
20655;SDS011;10487;53.320;8.672;2023-03-01T19:53:38;0.75;;;0.70;;
20655;SDS011;10487;53.320;8.672;2023-03-01T19:56:40;0.55;;;0.47;;
20655;SDS011;10487;53.320;8.672;2023-03-01T19:59:42;0.63;;;0.50;;
20655;SDS011;10487;53.320;8.672;2023-03-01T20:02:43;1.30;;;0.80;;
20655;SDS011;10487;53.320;8.672;2023-03-01T20:05:45;0.57;;;0.52;;
20655;SDS011;10487;53.320;8.672;2023-03-01T20:08:47;0.77;;;0.60;;
20655;SDS011;10487;53.320;8.672;2023-03-01T20:11:49;0.80;;;0.57;;
20655;SDS011;10487;53.320;8.672;2023-03-01T20:14:51;0.77;;;0.60;;
20655;SDS011;10487;53.320;8.672;2023-03-01T20:17:55;0.85;;;0.63;;
20655;SDS011;10487;53.320;8.672;2023-03-01T20:20:57;0.60;;;0.50;;